Lowell, Michigan
Current Conditions -  °F | °C
As of 9:53 AM on Saturday 25 Oct 2014 (Local Time) from KGRR Reporting Station
Haze Haze  
Wind Chill: 56°   Ceiling: 1300
Heat Index: 56°   Visibility: 3mi
Dew Point: 53°   Wind: 10mph
Humidity: 90%   Direction: 280°W
Pressure: 29.86"   Gusts: NA
Location:  42.93°N, 85.34°W
Report Text: KGRR 251353Z 28009KT 3SM BR SCT005 OVC013 13/12 A2986 RMK AO2 SLP113 T01330117
Loading
Personal Weather Stations






























Interactive Weather Map
Tropical Storm Tracking
New forecast layout! Learn more

10-Day Weather Forecast

Advertisements
Track Severe Weather on mobile